Time;durP1;ratioP1;P1;durP2;ratioP2;P2;SDS_P1;SDS_P2;PMS_P1;PMS_P2;Temp;Humidity;BMP_temperature;BMP_pressure;BME280_temperature;BME280_humidity;BME280_pressure;Samples;Min_cycle;Max_cycle;Signal;HPM_P1;HPM_P2
2021/12/26 00:01:13;;;;;;;60.70;40.13;;;;;;;1.44;100.00;94802.59;6179197;23;20012;-66
2021/12/26 00:03:40;;;;;;;64.32;46.22;;;;;;;1.39;100.00;94817.66;6178895;23;20040;-67
2021/12/26 00:06:11;;;;;;;50.65;40.05;;;;;;;1.31;100.00;94809.56;6179252;23;20059;-67
2021/12/26 00:08:39;;;;;;;50.15;37.67;;;;;;;1.28;100.00;94819.22;6179300;23;20001;-67
2021/12/26 00:11:05;;;;;;;43.63;32.80;;;;;;;1.31;100.00;94823.38;6179118;23;20005;-67
2021/12/26 00:13:31;;;;;;;37.42;31.40;;;;;;;1.50;100.00;94827.28;6178792;23;20040;-67
2021/12/26 00:15:58;;;;;;;70.00;46.38;;;;;;;1.97;100.00;94820.47;6179551;23;20110;-67
2021/12/26 00:18:23;;;;;;;67.60;44.47;;;;;;;1.90;100.00;94819.25;6178358;23;20425;-67
2021/12/26 00:20:49;;;;;;;79.63;50.70;;;;;;;1.73;100.00;94827.41;6152749;23;20071;-67
2021/12/26 00:23:16;;;;;;;72.90;48.42;;;;;;;1.65;100.00;94828.75;6179339;23;20563;-67
2021/12/26 00:25:42;;;;;;;48.88;37.88;;;;;;;1.63;100.00;94832.44;6179216;23;20005;-66
2021/12/26 00:28:08;;;;;;;49.13;34.63;;;;;;;1.72;100.00;94847.34;6179164;23;20008;-67
2021/12/26 00:30:34;;;;;;;50.00;33.80;;;;;;;1.69;100.00;94843.22;6152470;23;20009;-66
2021/12/26 00:33:00;;;;;;;42.63;32.47;;;;;;;1.68;100.00;94845.91;6179295;23;20459;-65
2021/12/26 00:35:26;;;;;;;46.40;33.97;;;;;;;1.64;100.00;94849.66;6178684;23;20029;-67
2021/12/26 00:37:51;;;;;;;42.97;31.95;;;;;;;1.61;100.00;94842.91;6179009;23;20005;-66
2021/12/26 00:40:20;;;;;;;49.67;32.08;;;;;;;1.62;100.00;94844.56;6179021;23;20019;-67
2021/12/26 00:42:47;;;;;;;49.25;31.73;;;;;;;1.66;100.00;94843.44;6179156;23;20503;-67
2021/12/26 00:45:12;;;;;;;42.75;30.48;;;;;;;1.70;100.00;94834.47;6178879;23;20012;-66
2021/12/26 00:47:39;;;;;;;45.55;29.65;;;;;;;1.72;100.00;94834.34;6178721;23;20009;-66
2021/12/26 00:50:08;;;;;;;38.45;27.05;;;;;;;1.78;100.00;94825.31;6179641;23;20001;-66
2021/12/26 00:52:34;;;;;;;33.85;25.15;;;;;;;1.82;100.00;94830.19;6178391;23;20009;-66
2021/12/26 00:54:59;;;;;;;33.33;25.25;;;;;;;1.90;100.00;94818.41;6179190;23;20002;-66
2021/12/26 00:57:24;;;;;;;26.98;20.35;;;;;;;1.96;100.00;94817.97;6178799;23;20005;-66
2021/12/26 00:59:50;;;;;;;29.25;22.92;;;;;;;1.91;100.00;94822.66;6152599;23;20076;-67
2021/12/26 01:02:16;;;;;;;32.47;24.13;;;;;;;1.86;100.00;94810.84;6179081;23;20498;-66
2021/12/26 01:04:42;;;;;;;31.35;24.67;;;;;;;1.85;100.00;94810.94;6178408;23;20017;-67
2021/12/26 01:07:17;;;;;;;33.95;24.10;;;;;;;1.76;100.00;94811.63;6178928;23;20005;-66
2021/12/26 01:09:46;;;;;;;24.15;18.65;;;;;;;1.75;100.00;94815.16;6178808;23;20009;-67
2021/12/26 01:12:15;;;;;;;49.38;28.60;;;;;;;2.17;100.00;94805.22;6152684;23;20066;-67
2021/12/26 01:14:47;;;;;;;26.92;18.98;;;;;;;2.32;100.00;94803.25;6178518;23;20005;-67
2021/12/26 01:17:16;;;;;;;32.22;18.85;;;;;;;2.11;100.00;94806.47;6178876;23;20001;-66
2021/12/26 01:19:47;;;;;;;24.15;16.67;;;;;;;2.03;100.00;94813.16;6179303;22;20009;-66
2021/12/26 01:22:12;;;;;;;38.10;22.13;;;;;;;1.99;100.00;94810.78;6179179;23;20341;-67
2021/12/26 01:24:38;;;;;;;40.15;23.60;;;;;;;1.92;100.00;94807.00;6152427;22;20005;-67
2021/12/26 01:27:04;;;;;;;32.42;23.30;;;;;;;2.05;100.00;94816.47;6178668;23;20080;-67
2021/12/26 01:29:30;;;;;;;30.35;20.25;;;;;;;2.48;100.00;94817.72;6178136;23;20076;-67
2021/12/26 01:31:56;;;;;;;24.08;15.13;;;;;;;2.42;100.00;94825.00;6178910;23;20039;-67
2021/12/26 01:34:21;;;;;;;24.40;15.75;;;;;;;2.18;100.00;94830.25;6178191;23;20005;-67
2021/12/26 01:36:48;;;;;;;20.20;14.32;;;;;;;2.09;100.00;94829.13;6178922;22;20010;-67
2021/12/26 01:39:14;;;;;;;23.98;17.58;;;;;;;1.98;100.00;94829.91;6178752;23;20005;-67
2021/12/26 01:41:42;;;;;;;25.48;17.45;;;;;;;1.90;100.00;94827.03;6177708;23;20009;-66
2021/12/26 01:44:12;;;;;;;23.02;16.90;;;;;;;1.88;100.00;94836.72;6177848;23;20079;-67
2021/12/26 01:46:39;;;;;;;20.35;15.52;;;;;;;1.85;100.00;94834.31;6178820;23;20009;-66
2021/12/26 01:49:07;;;;;;;21.85;15.43;;;;;;;1.83;100.00;94846.56;6178259;23;20449;-66
2021/12/26 01:51:32;;;;;;;18.88;13.43;;;;;;;1.82;100.00;94845.75;6178700;23;20013;-67
2021/12/26 01:54:04;;;;;;;20.90;13.63;;;;;;;1.80;100.00;94854.59;6179288;23;20318;-66
2021/12/26 01:56:29;;;;;;;22.98;14.63;;;;;;;1.91;100.00;94856.41;6178275;23;20314;-67
2021/12/26 01:58:56;;;;;;;20.63;15.43;;;;;;;1.92;100.00;94860.66;6178947;23;20013;-66
2021/12/26 02:01:22;;;;;;;19.20;16.48;;;;;;;2.07;100.00;94863.94;6178631;23;20349;-67
2021/12/26 02:03:48;;;;;;;18.65;15.88;;;;;;;2.05;100.00;94864.06;6178403;23;20017;-67
2021/12/26 02:06:14;;;;;;;22.27;15.10;;;;;;;2.12;100.00;94867.03;6178649;22;20336;-66
2021/12/26 02:08:39;;;;;;;21.77;18.10;;;;;;;2.08;100.00;94861.22;6178537;23;20005;-66
2021/12/26 02:11:05;;;;;;;21.83;17.30;;;;;;;1.98;100.00;94865.41;6178589;23;20115;-67
2021/12/26 02:13:31;;;;;;;22.33;17.55;;;;;;;1.89;100.00;94869.53;6178212;23;20005;-67
2021/12/26 02:15:57;;;;;;;17.67;15.77;;;;;;;1.90;100.00;94860.78;6178810;23;20054;-67
2021/12/26 02:18:23;;;;;;;16.92;15.00;;;;;;;1.83;100.00;94859.56;6178612;23;19997;-67
2021/12/26 02:24:22;;;;;;;16.15;14.05;;;;;;;2.06;100.00;94859.69;6178770;23;20382;-66
2021/12/26 02:28:44;;;;;;;18.67;14.65;;;;;;;1.93;100.00;94857.13;6178749;23;20001;-66
2021/12/26 02:31:09;;;;;;;20.80;15.50;;;;;;;1.88;100.00;94864.44;6178420;23;20005;-66
2021/12/26 02:33:36;;;;;;;23.10;17.88;;;;;;;1.80;100.00;94870.16;6178228;23;20492;-66
2021/12/26 02:36:03;;;;;;;20.30;16.08;;;;;;;1.79;100.00;94873.69;6178702;23;20009;-66
2021/12/26 02:38:28;;;;;;;18.73;15.25;;;;;;;1.81;100.00;94869.22;6178295;23;20079;-66
2021/12/26 02:40:56;;;;;;;17.42;15.55;;;;;;;1.82;100.00;94870.88;6178228;23;20468;-67
2021/12/26 02:43:23;;;;;;;19.00;16.45;;;;;;;1.80;100.00;94883.97;6178277;23;19997;-66
2021/12/26 02:45:49;;;;;;;18.20;16.23;;;;;;;1.79;100.00;94881.47;6178454;23;20009;-67
2021/12/26 02:48:16;;;;;;;19.00;16.20;;;;;;;1.78;100.00;94870.28;6178310;23;20394;-66
2021/12/26 02:50:43;;;;;;;18.67;14.48;;;;;;;1.75;100.00;94875.66;6178276;23;20005;-66
2021/12/26 02:53:12;;;;;;;15.20;13.45;;;;;;;1.76;100.00;94873.91;6178465;23;20015;-67
2021/12/26 02:55:37;;;;;;;16.55;14.38;;;;;;;1.78;100.00;94872.03;6178397;23;20377;-67
2021/12/26 02:58:09;;;;;;;13.80;12.48;;;;;;;1.75;100.00;94869.66;6178492;23;20050;-66
2021/12/26 03:00:42;;;;;;;17.42;15.63;;;;;;;1.71;100.00;94872.47;6177941;23;20047;-67
2021/12/26 03:03:08;;;;;;;15.85;14.15;;;;;;;1.73;100.00;94866.34;6178522;23;20001;-66
2021/12/26 03:05:36;;;;;;;15.77;14.00;;;;;;;1.75;100.00;94869.66;6177934;23;20020;-66
2021/12/26 03:08:04;;;;;;;15.70;13.27;;;;;;;1.71;100.00;94874.22;6178161;23;20026;-66
2021/12/26 03:10:29;;;;;;;18.23;14.25;;;;;;;1.68;100.00;94866.66;6151795;23;20005;-66
2021/12/26 03:13:01;;;;;;;19.00;14.48;;;;;;;1.63;100.00;94866.97;6178152;23;20777;-67
2021/12/26 03:15:30;;;;;;;15.57;13.60;;;;;;;1.56;100.00;94866.59;6177848;23;20081;-67
2021/12/26 03:17:56;;;;;;;14.02;12.60;;;;;;;1.50;100.00;94868.78;6178106;23;20031;-66
2021/12/26 03:20:24;;;;;;;14.57;13.10;;;;;;;1.50;100.00;94858.41;6178458;23;20001;-66
2021/12/26 03:22:50;;;;;;;15.82;12.82;;;;;;;1.49;100.00;94864.53;6178306;23;20009;-66
2021/12/26 03:25:18;;;;;;;14.93;12.43;;;;;;;1.51;100.00;94867.84;6177807;23;20031;-66
2021/12/26 03:27:44;;;;;;;13.23;11.95;;;;;;;1.50;100.00;94861.81;6178119;23;20072;-66
2021/12/26 03:30:13;;;;;;;13.85;12.48;;;;;;;1.49;100.00;94860.16;6178030;23;20466;-67
2021/12/26 03:32:39;;;;;;;12.23;11.07;;;;;;;1.45;100.00;94850.13;6177997;23;20017;-66
2021/12/26 03:35:05;;;;;;;13.05;11.70;;;;;;;1.38;100.00;94845.34;6178031;23;20337;-66
2021/12/26 03:37:30;;;;;;;26.73;14.82;;;;;;;1.35;100.00;94847.34;6177655;23;20001;-66
2021/12/26 03:39:56;;;;;;;17.42;14.23;;;;;;;1.35;100.00;94853.34;6177781;23;20076;-66
2021/12/26 03:42:23;;;;;;;15.68;14.07;;;;;;;1.30;100.00;94847.66;6177901;23;20012;-66
2021/12/26 03:44:50;;;;;;;17.33;13.85;;;;;;;1.23;100.00;94844.63;6177721;23;20441;-66
2021/12/26 03:47:16;;;;;;;18.15;14.32;;;;;;;1.20;100.00;94852.63;6177706;23;20056;-66
2021/12/26 03:49:42;;;;;;;27.17;17.15;;;;;;;1.19;100.00;94850.97;6177286;23;20002;-66
2021/12/26 03:52:07;;;;;;;57.53;15.45;;;;;;;1.14;100.00;94856.47;6177831;23;20075;-66
2021/12/26 03:54:33;;;;;;;36.05;16.05;;;;;;;1.16;100.00;94852.94;6178819;23;20036;-66
2021/12/26 03:57:00;;;;;;;23.30;18.23;;;;;;;1.16;100.00;94851.19;6179152;23;20364;-66
2021/12/26 03:59:27;;;;;;;91.07;17.83;;;;;;;1.16;100.00;94847.75;6179667;23;20412;-66
2021/12/26 04:01:54;;;;;;;23.98;18.23;;;;;;;1.12;100.00;94854.94;6179150;23;20016;-66
2021/12/26 04:04:20;;;;;;;21.02;16.38;;;;;;;1.08;100.00;94843.94;6178722;23;20395;-66
2021/12/26 04:06:46;;;;;;;41.80;17.42;;;;;;;1.05;100.00;94861.44;6179136;23;20002;-66
2021/12/26 04:09:12;;;;;;;137.77;19.83;;;;;;;1.03;100.00;94858.97;6179019;23;20444;-66
2021/12/26 04:11:41;;;;;;;114.90;20.15;;;;;;;1.08;100.00;94859.50;6178895;23;20001;-66
2021/12/26 04:14:06;;;;;;;76.68;19.52;;;;;;;1.13;100.00;94847.03;6179014;23;20055;-66
2021/12/26 04:16:32;;;;;;;40.55;18.88;;;;;;;1.16;100.00;94840.81;6179333;23;20009;-66
2021/12/26 04:18:57;;;;;;;25.45;17.23;;;;;;;1.13;100.00;94841.84;6179097;23;20001;-66
2021/12/26 04:21:23;;;;;;;26.08;16.23;;;;;;;1.05;100.00;94838.97;6178985;23;20092;-66
2021/12/26 04:23:48;;;;;;;38.70;14.20;;;;;;;1.02;100.00;94846.09;6178935;23;20009;-66
2021/12/26 04:26:13;;;;;;;26.77;14.57;;;;;;;0.97;100.00;94836.03;6179514;23;20322;-66
2021/12/26 04:28:39;;;;;;;27.17;15.63;;;;;;;0.98;100.00;94845.47;6178792;23;19997;-66
2021/12/26 04:31:04;;;;;;;25.52;14.25;;;;;;;0.97;100.00;94857.63;6178889;23;20001;-66
2021/12/26 04:33:29;;;;;;;37.05;16.30;;;;;;;0.98;100.00;94850.66;6178726;22;20074;-66
2021/12/26 04:35:55;;;;;;;37.22;14.27;;;;;;;0.98;100.00;94853.25;6179427;23;20005;-66
2021/12/26 04:38:21;;;;;;;43.72;15.15;;;;;;;0.97;100.00;94867.16;6178822;23;20070;-66
2021/12/26 04:40:47;;;;;;;32.63;13.18;;;;;;;0.97;100.00;94872.34;6179031;22;20372;-66
2021/12/26 04:43:12;;;;;;;29.13;14.43;;;;;;;0.94;100.00;94875.13;6178995;23;20047;-66
2021/12/26 04:45:37;;;;;;;19.55;15.75;;;;;;;0.90;100.00;94877.13;6178750;23;20005;-66
2021/12/26 04:48:03;;;;;;;24.58;13.70;;;;;;;1.05;100.00;94875.25;6178965;23;20051;-66
2021/12/26 04:50:29;;;;;;;27.63;13.48;;;;;;;1.13;100.00;94878.16;6178946;23;20326;-66
2021/12/26 04:52:56;;;;;;;41.13;14.88;;;;;;;1.22;100.00;94881.06;6178482;23;20040;-66
2021/12/26 04:55:25;;;;;;;39.30;15.07;;;;;;;1.03;100.00;94876.28;6178758;23;20345;-66
2021/12/26 04:57:51;;;;;;;16.48;13.93;;;;;;;0.92;100.00;94884.78;6178754;23;20005;-66
2021/12/26 05:00:20;;;;;;;25.63;17.77;;;;;;;0.83;100.00;94876.69;6178733;23;20336;-66
2021/12/26 05:02:47;;;;;;;66.22;22.05;;;;;;;0.81;100.00;94882.91;6178939;23;20059;-66
2021/12/26 05:05:14;;;;;;;40.42;22.55;;;;;;;0.87;100.00;94876.50;6178487;23;20021;-66
2021/12/26 05:07:42;;;;;;;43.22;21.58;;;;;;;0.90;100.00;94874.53;6178605;23;20011;-66
2021/12/26 05:10:09;;;;;;;64.82;20.33;;;;;;;0.94;100.00;94878.56;6152413;23;20058;-66
2021/12/26 05:12:36;;;;;;;37.45;18.58;;;;;;;0.96;100.00;94875.84;6178803;23;20028;-66
2021/12/26 05:15:06;;;;;;;28.45;18.13;;;;;;;1.01;100.00;94876.41;6179028;23;20005;-66
2021/12/26 05:17:32;;;;;;;29.23;19.20;;;;;;;0.98;100.00;94880.00;6178303;23;20012;-66
2021/12/26 05:19:57;;;;;;;35.17;20.30;;;;;;;0.95;100.00;94882.81;6178943;23;20342;-66
2021/12/26 05:22:24;;;;;;;35.97;20.60;;;;;;;0.96;100.00;94886.22;6178981;23;20005;-66
2021/12/26 05:24:50;;;;;;;28.48;18.63;;;;;;;0.97;100.00;94885.28;6178944;23;20383;-66
2021/12/26 05:27:16;;;;;;;24.60;18.52;;;;;;;0.96;100.00;94888.81;6178989;23;20004;-66
2021/12/26 05:29:41;;;;;;;31.85;18.17;;;;;;;0.98;100.00;94886.94;6178581;23;20005;-66
2021/12/26 05:32:07;;;;;;;23.17;17.77;;;;;;;1.00;100.00;94880.75;6178710;23;20005;-68
2021/12/26 05:34:33;;;;;;;23.25;16.65;;;;;;;1.00;100.00;94879.94;6178347;23;20019;-66
2021/12/26 05:36:58;;;;;;;26.77;18.63;;;;;;;1.17;100.00;94878.78;6178607;23;20008;-67
2021/12/26 05:39:24;;;;;;;42.42;26.02;;;;;;;1.47;100.00;94884.56;6178820;23;20009;-67
2021/12/26 05:41:50;;;;;;;31.30;21.20;;;;;;;1.27;100.00;94889.34;6177855;23;20012;-66
2021/12/26 05:44:15;;;;;;;30.08;20.83;;;;;;;1.25;100.00;94891.22;6178674;23;20433;-67
2021/12/26 05:46:41;;;;;;;38.88;22.17;;;;;;;1.18;100.00;94896.00;6178611;23;20005;-67
2021/12/26 05:49:07;;;;;;;33.63;21.27;;;;;;;1.06;100.00;94892.47;6179252;23;20437;-66
2021/12/26 05:51:33;;;;;;;34.22;19.90;;;;;;;1.00;100.00;94893.69;6178511;23;20016;-66
2021/12/26 05:53:58;;;;;;;28.92;20.13;;;;;;;0.98;100.00;94884.34;6178466;23;20013;-66
2021/12/26 05:56:24;;;;;;;26.05;18.25;;;;;;;0.98;100.00;94892.97;6178516;23;20005;-65
2021/12/26 05:58:49;;;;;;;21.10;16.52;;;;;;;0.99;100.00;94892.03;6178352;23;20005;-66
2021/12/26 06:01:15;;;;;;;21.67;16.63;;;;;;;0.97;100.00;94880.09;6179064;23;20009;-68
2021/12/26 06:03:40;;;;;;;20.02;15.07;;;;;;;0.97;100.00;94887.88;6178453;23;20088;-66
2021/12/26 06:06:06;;;;;;;17.77;15.88;;;;;;;0.91;100.00;94889.16;6178892;23;20005;-65
2021/12/26 06:08:32;;;;;;;20.67;15.52;;;;;;;0.87;100.00;94887.66;6178523;23;20424;-66
2021/12/26 06:10:57;;;;;;;31.23;24.65;;;;;;;0.89;100.00;94882.41;6178582;23;20001;-67
2021/12/26 06:13:23;;;;;;;22.20;18.00;;;;;;;0.91;100.00;94883.97;6178318;23;20016;-67
2021/12/26 06:15:49;;;;;;;23.08;19.00;;;;;;;0.87;100.00;94884.25;6178219;23;20085;-66
2021/12/26 06:18:14;;;;;;;22.38;17.83;;;;;;;0.75;100.00;94888.50;6178570;23;20004;-66
2021/12/26 06:20:39;;;;;;;22.52;15.52;;;;;;;0.67;100.00;94887.25;6178660;23;20509;-67
2021/12/26 06:23:05;;;;;;;18.98;14.82;;;;;;;0.58;100.00;94887.84;6178747;23;20009;-67
2021/12/26 06:25:31;;;;;;;24.83;17.00;;;;;;;0.51;100.00;94895.19;6178333;23;20017;-66
2021/12/26 06:27:56;;;;;;;34.85;18.83;;;;;;;0.53;100.00;94897.69;6177205;23;20383;-66
2021/12/26 06:30:21;;;;;;;35.08;20.88;;;;;;;0.57;100.00;94899.13;6178480;23;20370;-66
2021/12/26 06:32:47;;;;;;;39.35;23.50;;;;;;;0.57;100.00;94899.97;6178565;23;20751;-67
2021/12/26 06:35:13;;;;;;;48.03;24.55;;;;;;;0.61;100.00;94904.97;6152030;23;20058;-67
2021/12/26 06:37:38;;;;;;;132.73;26.45;;;;;;;0.63;100.00;94905.69;6177914;23;20429;-66
2021/12/26 06:40:07;;;;;;;45.10;20.88;;;;;;;0.73;100.00;94903.31;6178333;23;20352;-66
2021/12/26 06:42:35;;;;;;;133.50;24.08;;;;;;;0.72;100.00;94905.06;6178627;23;20080;-66
2021/12/26 06:45:01;;;;;;;65.43;23.35;;;;;;;0.63;100.00;94916.88;6178204;23;20027;-67
2021/12/26 06:47:26;;;;;;;42.13;24.95;;;;;;;0.61;100.00;94917.91;6178135;23;20005;-66
2021/12/26 06:49:51;;;;;;;51.38;23.92;;;;;;;0.65;100.00;94919.38;6152012;23;20028;-67
2021/12/26 06:52:17;;;;;;;38.30;22.75;;;;;;;0.67;100.00;94922.69;6178104;23;20032;-68
2021/12/26 06:54:43;;;;;;;53.78;24.85;;;;;;;0.65;100.00;94909.81;6178434;23;20452;-67
2021/12/26 06:57:08;;;;;;;43.67;23.80;;;;;;;0.59;100.00;94918.00;6178116;23;20471;-66
2021/12/26 06:59:34;;;;;;;35.17;22.58;;;;;;;0.55;100.00;94913.94;6177972;23;20008;-66
2021/12/26 07:01:59;;;;;;;43.55;24.23;;;;;;;0.53;100.00;94911.44;6151751;22;20005;-66
2021/12/26 07:04:25;;;;;;;97.80;25.65;;;;;;;0.53;100.00;94911.44;6177971;23;20013;-68
2021/12/26 07:06:50;;;;;;;101.95;23.05;;;;;;;0.58;100.00;94916.34;6178208;23;20020;-66
2021/12/26 07:09:16;;;;;;;160.23;27.42;;;;;;;0.64;100.00;94902.16;6178490;23;20394;-66
2021/12/26 07:11:41;;;;;;;59.60;17.48;;;;;;;0.70;100.00;94906.94;6178067;23;20005;-67
2021/12/26 07:14:08;;;;;;;100.10;27.80;;;;;;;0.76;100.00;94900.53;6151657;23;20069;-66
2021/12/26 07:16:34;;;;;;;56.03;25.27;;;;;;;0.69;100.00;94908.72;6177927;23;20014;-67
2021/12/26 07:18:59;;;;;;;42.40;23.73;;;;;;;0.63;100.00;94913.47;6176708;23;20013;-67
2021/12/26 07:21:25;;;;;;;51.65;23.17;;;;;;;0.62;100.00;94912.63;6151982;23;20488;-66
2021/12/26 07:23:50;;;;;;;52.53;32.55;;;;;;;0.67;100.00;94907.97;6178104;23;20009;-66
2021/12/26 07:26:15;;;;;;;88.75;54.63;;;;;;;0.66;100.00;94910.66;6177909;23;20379;-67
2021/12/26 07:28:41;;;;;;;56.03;30.70;;;;;;;0.64;100.00;94899.56;6178644;23;20062;-67
2021/12/26 07:31:07;;;;;;;38.50;25.90;;;;;;;0.68;100.00;94895.84;6179441;23;20032;-66
2021/12/26 07:33:32;;;;;;;42.03;26.92;;;;;;;0.64;100.00;94896.97;6179010;23;20016;-66
2021/12/26 07:35:58;;;;;;;50.70;32.38;;;;;;;0.63;100.00;94900.50;6179317;23;20008;-66
2021/12/26 07:38:23;;;;;;;39.63;25.45;;;;;;;0.64;100.00;94899.56;6152821;23;20068;-66
2021/12/26 07:40:49;;;;;;;30.50;23.65;;;;;;;0.78;100.00;94902.09;6179488;23;20032;-67
2021/12/26 07:43:14;;;;;;;30.23;23.48;;;;;;;0.76;100.00;94903.94;6179120;23;20444;-67
2021/12/26 07:45:40;;;;;;;27.30;22.17;;;;;;;0.82;100.00;94897.53;6178935;23;20046;-66
2021/12/26 07:48:06;;;;;;;42.42;27.88;;;;;;;0.85;100.00;94908.53;6179201;23;20001;-66
2021/12/26 07:50:32;;;;;;;38.78;32.45;;;;;;;0.85;100.00;94912.84;6179103;23;20444;-67
2021/12/26 07:53:06;;;;;;;42.30;33.83;;;;;;;0.90;100.00;94916.00;6179077;23;20448;-67
2021/12/26 07:55:31;;;;;;;53.15;39.20;;;;;;;1.00;100.00;94918.81;6152525;23;20044;-66
2021/12/26 07:57:56;;;;;;;63.70;44.70;;;;;;;1.04;100.00;94912.47;6179289;23;20345;-66
2021/12/26 08:00:22;;;;;;;49.78;35.70;;;;;;;1.12;100.00;94907.59;6178873;23;20011;-67
2021/12/26 08:02:48;;;;;;;40.00;35.08;;;;;;;1.20;100.00;94912.28;6179345;23;20016;-67
2021/12/26 08:05:15;;;;;;;41.75;34.08;;;;;;;1.28;100.00;94903.97;6178628;23;20109;-66
2021/12/26 08:07:41;;;;;;;37.47;28.80;;;;;;;1.36;100.00;94911.25;6178838;23;20005;-66
2021/12/26 08:10:07;;;;;;;41.80;30.63;;;;;;;1.39;100.00;94904.06;6179436;23;20035;-66
2021/12/26 08:12:33;;;;;;;51.13;43.17;;;;;;;1.43;100.00;94904.69;6179340;23;20001;-66
2021/12/26 08:15:01;;;;;;;38.80;31.63;;;;;;;1.47;100.00;94908.72;6179370;23;20058;-68
2021/12/26 08:17:27;;;;;;;34.50;27.20;;;;;;;1.49;100.00;94919.00;6178770;23;20073;-65
2021/12/26 08:19:52;;;;;;;32.90;27.63;;;;;;;1.48;100.00;94923.34;6153256;22;20085;-66
2021/12/26 08:22:18;;;;;;;30.60;24.30;;;;;;;1.55;100.00;94923.78;6179347;23;20076;-66
2021/12/26 08:24:43;;;;;;;30.08;25.13;;;;;;;1.73;100.00;94923.44;6179334;23;20005;-66
2021/12/26 08:27:08;;;;;;;29.80;25.65;;;;;;;1.68;100.00;94923.75;6178828;23;20009;-70
2021/12/26 08:29:34;;;;;;;26.67;22.48;;;;;;;1.67;100.00;94916.91;6179214;23;20012;-68
2021/12/26 08:32:00;;;;;;;30.38;24.98;;;;;;;1.71;100.00;94914.00;6179290;23;20047;-68
2021/12/26 08:34:26;;;;;;;29.65;24.60;;;;;;;1.80;100.00;94912.53;6179137;23;20005;-68
2021/12/26 08:37:01;;;;;;;36.10;28.83;;;;;;;1.81;100.00;94914.19;6179336;23;20030;-67
2021/12/26 08:39:28;;;;;;;32.20;27.27;;;;;;;1.85;100.00;94915.63;6178985;23;20004;-65
2021/12/26 08:41:54;;;;;;;25.85;23.10;;;;;;;1.91;100.00;94914.38;6179219;23;20080;-67
2021/12/26 08:44:21;;;;;;;28.08;23.67;;;;;;;2.02;100.00;94907.56;6178696;23;19997;-67
2021/12/26 08:46:47;;;;;;;27.00;22.63;;;;;;;1.96;100.00;94907.06;6179092;23;20080;-68
2021/12/26 08:49:14;;;;;;;30.02;24.50;;;;;;;1.92;100.00;94908.25;6179693;23;20041;-68
2021/12/26 08:51:40;;;;;;;34.55;24.00;;;;;;;1.86;100.00;94901.72;6178573;23;20020;-68
2021/12/26 08:54:06;;;;;;;27.65;22.20;;;;;;;1.84;100.00;94905.34;6179127;23;20073;-67
2021/12/26 08:56:32;;;;;;;27.15;21.60;;;;;;;1.79;100.00;94899.66;6152690;23;20422;-66
2021/12/26 08:58:57;;;;;;;22.30;18.95;;;;;;;1.78;100.00;94906.63;6179075;23;20005;-67
2021/12/26 09:01:23;;;;;;;22.65;18.63;;;;;;;1.75;100.00;94903.41;6179279;23;20023;-69
2021/12/26 09:03:48;;;;;;;20.95;18.70;;;;;;;1.77;100.00;94902.38;6179004;23;20012;-71
2021/12/26 09:06:14;;;;;;;19.33;17.30;;;;;;;1.74;100.00;94904.34;6178734;23;20404;-69
2021/12/26 09:08:39;;;;;;;19.33;17.33;;;;;;;1.68;100.00;94910.78;6151705;23;20448;-71
2021/12/26 09:11:05;;;;;;;32.47;23.67;;;;;;;1.65;100.00;94911.81;6178340;23;20076;-71
2021/12/26 09:13:30;;;;;;;29.65;24.38;;;;;;;1.66;100.00;94910.06;6178162;23;20067;-71
2021/12/26 09:15:56;;;;;;;35.17;21.98;;;;;;;1.72;100.00;94917.41;6177336;23;20501;-70
2021/12/26 09:18:21;;;;;;;30.40;21.20;;;;;;;1.79;100.00;94925.59;6175708;23;20456;-72
2021/12/26 09:20:47;;;;;;;33.00;23.83;;;;;;;1.88;100.00;94922.38;6177428;23;20001;-69
2021/12/26 09:23:12;;;;;;;49.65;24.50;;;;;;;1.96;100.00;94927.84;6176693;23;20027;-68
2021/12/26 09:25:38;;;;;;;43.50;22.63;;;;;;;2.05;100.00;94928.97;6177694;23;20066;-66
2021/12/26 09:28:03;;;;;;;57.42;21.08;;;;;;;2.11;100.00;94928.53;6178825;23;20447;-60
2021/12/26 09:30:30;;;;;;;48.25;21.95;;;;;;;2.03;100.00;94933.44;6178792;23;20005;-59
2021/12/26 09:32:55;;;;;;;24.30;17.48;;;;;;;2.08;100.00;94944.34;6179288;23;20029;-60
2021/12/26 09:35:20;;;;;;;32.28;16.15;;;;;;;2.22;100.00;94948.53;6177354;23;20012;-59
2021/12/26 09:37:47;;;;;;;26.63;16.48;;;;;;;2.25;100.00;94952.69;6177536;23;20009;-61
2021/12/26 09:40:14;;;;;;;40.92;15.90;;;;;;;2.23;100.00;94941.59;6178151;23;20005;-60
2021/12/26 09:42:40;;;;;;;16.27;14.57;;;;;;;2.26;100.00;94946.56;6178731;23;20009;-60
2021/12/26 09:45:08;;;;;;;19.90;17.05;;;;;;;2.39;100.00;94946.50;6178953;23;20005;-60
2021/12/26 09:47:34;;;;;;;31.88;22.98;;;;;;;2.66;100.00;94950.66;6178929;23;20391;-60
2021/12/26 09:50:01;;;;;;;25.35;22.08;;;;;;;2.93;100.00;94954.78;6178328;23;20013;-60
2021/12/26 09:52:27;;;;;;;24.88;22.05;;;;;;;3.23;100.00;94949.06;6178805;23;20014;-61
2021/12/26 09:54:52;;;;;;;25.60;21.52;;;;;;;3.41;100.00;94953.81;6178828;23;20032;-61
2021/12/26 09:57:18;;;;;;;22.75;20.13;;;;;;;3.53;100.00;94952.88;6178791;23;20008;-59
2021/12/26 09:59:47;;;;;;;42.72;30.67;;;;;;;3.91;100.00;94956.13;6178615;23;20005;-60
2021/12/26 10:02:15;;;;;;;32.22;23.42;;;;;;;4.03;100.00;94956.94;6179176;23;20063;-60
2021/12/26 10:04:42;;;;;;;26.08;21.75;;;;;;;4.33;100.00;94957.25;6178512;23;20346;-60
2021/12/26 10:07:11;;;;;;;23.40;20.58;;;;;;;4.52;100.00;94956.59;6178444;23;20080;-60
2021/12/26 10:09:39;;;;;;;32.08;22.52;;;;;;;4.75;100.00;94961.75;6178199;23;20448;-59
2021/12/26 10:12:05;;;;;;;25.85;19.63;;;;;;;4.56;100.00;94963.22;6178934;23;20001;-61
2021/12/26 10:14:33;;;;;;;19.40;15.30;;;;;;;4.47;100.00;94951.75;6178242;23;20027;-61
2021/12/26 10:17:15;;;;;;;14.68;13.10;;;;;;;4.57;100.00;94952.69;6178771;23;20462;-60
2021/12/26 10:19:44;;;;;;;10.35;9.43;;;;;;;4.53;100.00;94953.88;6178364;23;20070;-61
2021/12/26 10:22:11;;;;;;;11.50;10.40;;;;;;;4.62;100.00;94954.91;6178925;23;20420;-60
2021/12/26 10:24:42;;;;;;;12.85;11.75;;;;;;;4.72;100.00;94953.22;6178344;23;20001;-60
2021/12/26 10:27:14;;;;;;;13.25;12.02;;;;;;;4.98;100.00;94952.88;6178625;23;20032;-61
2021/12/26 10:29:44;;;;;;;23.80;18.42;;;;;;;5.30;100.00;94945.97;6177604;23;20416;-61
2021/12/26 10:32:25;;;;;;;21.88;15.70;;;;;;;5.68;100.00;94943.69;6179355;22;20353;-61
2021/12/26 10:34:55;;;;;;;18.70;14.68;;;;;;;5.98;100.00;94931.59;6178596;23;20046;-59
2021/12/26 10:37:20;;;;;;;12.13;10.75;;;;;;;6.29;100.00;94937.59;6178343;23;20005;-60
2021/12/26 10:39:53;;;;;;;12.23;11.00;;;;;;;6.41;100.00;94934.88;6178204;23;20043;-60
2021/12/26 10:42:22;;;;;;;12.68;11.35;;;;;;;6.61;100.00;94935.72;6178483;23;20005;-60
2021/12/26 10:44:52;;;;;;;8.90;8.10;;;;;;;6.85;100.00;94930.09;6178315;23;20441;-60
2021/12/26 10:47:23;;;;;;;11.32;9.80;;;;;;;7.15;100.00;94928.28;6178305;23;20076;-59
2021/12/26 10:49:58;;;;;;;9.70;8.77;;;;;;;7.10;97.11;94929.69;6178278;23;20012;-61
2021/12/26 10:52:23;;;;;;;9.15;8.35;;;;;;;6.96;96.87;94925.69;6178754;23;20001;-61
2021/12/26 10:54:52;;;;;;;11.35;10.35;;;;;;;6.85;97.75;94921.41;6178304;23;20009;-61
2021/12/26 10:57:21;;;;;;;11.57;10.48;;;;;;;6.81;98.55;94927.91;6178655;23;20005;-60
2021/12/26 10:59:58;;;;;;;15.15;12.60;;;;;;;6.83;99.38;94918.13;6178856;22;20001;-61
2021/12/26 11:02:27;;;;;;;12.50;11.25;;;;;;;6.70;98.50;94921.00;6178398;23;20433;-59
2021/12/26 11:05:02;;;;;;;13.52;12.02;;;;;;;6.48;99.61;94924.72;6178054;23;20017;-59
2021/12/26 11:07:27;;;;;;;10.90;9.80;;;;;;;6.37;100.00;94923.84;6178201;23;20055;-60
2021/12/26 11:10:09;;;;;;;11.05;9.95;;;;;;;6.24;100.00;94924.13;6177310;23;20009;-60
2021/12/26 11:12:37;;;;;;;15.25;12.68;;;;;;;6.17;100.00;94917.78;6177607;23;20013;-61
2021/12/26 11:15:04;;;;;;;19.48;14.88;;;;;;;6.20;100.00;94925.34;6178192;23;20353;-61
2021/12/26 11:17:33;;;;;;;18.08;13.85;;;;;;;6.16;100.00;94909.09;6178101;23;20005;-59
2021/12/26 11:19:59;;;;;;;17.60;14.07;;;;;;;6.10;100.00;94914.88;6175809;23;20341;-60